sensor_id;sensor_type;location;lat;lon;timestamp;temperature;humidity
8910;DHT22;4490;49.072;8.804;2023-07-02T00:01:10;18.50;99.90
8910;DHT22;4490;49.072;8.804;2023-07-02T00:03:37;18.50;99.90
8910;DHT22;4490;49.072;8.804;2023-07-02T00:06:03;18.50;99.90
8910;DHT22;4490;49.072;8.804;2023-07-02T00:08:29;18.50;99.90
8910;DHT22;4490;49.072;8.804;2023-07-02T00:10:55;18.40;99.90
8910;DHT22;4490;49.072;8.804;2023-07-02T00:13:20;18.40;99.90
8910;DHT22;4490;49.072;8.804;2023-07-02T00:15:46;18.40;99.90
8910;DHT22;4490;49.072;8.804;2023-07-02T00:18:11;18.40;99.90
8910;DHT22;4490;49.072;8.804;2023-07-02T00:20:42;18.40;99.90
8910;DHT22;4490;49.072;8.804;2023-07-02T00:23:08;18.40;99.90
8910;DHT22;4490;49.072;8.804;2023-07-02T00:25:38;18.30;99.90
8910;DHT22;4490;49.072;8.804;2023-07-02T00:28:04;18.30;99.90
8910;DHT22;4490;49.072;8.804;2023-07-02T00:30:29;18.30;99.90
8910;DHT22;4490;49.072;8.804;2023-07-02T00:32:55;18.30;99.90
8910;DHT22;4490;49.072;8.804;2023-07-02T00:35:21;18.30;99.90
8910;DHT22;4490;49.072;8.804;2023-07-02T00:37:47;18.30;99.90
8910;DHT22;4490;49.072;8.804;2023-07-02T00:40:13;18.30;99.90
8910;DHT22;4490;49.072;8.804;2023-07-02T00:42:38;18.30;99.90
8910;DHT22;4490;49.072;8.804;2023-07-02T00:45:04;18.30;99.90
8910;DHT22;4490;49.072;8.804;2023-07-02T00:47:34;18.30;99.90
8910;DHT22;4490;49.072;8.804;2023-07-02T00:50:01;18.40;99.90
8910;DHT22;4490;49.072;8.804;2023-07-02T00:52:27;18.40;99.90
8910;DHT22;4490;49.072;8.804;2023-07-02T00:54:52;18.40;99.90
8910;DHT22;4490;49.072;8.804;2023-07-02T00:57:19;18.40;99.90
8910;DHT22;4490;49.072;8.804;2023-07-02T00:59:44;18.40;99.90
8910;DHT22;4490;49.072;8.804;2023-07-02T01:02:10;18.40;99.90
8910;DHT22;4490;49.072;8.804;2023-07-02T01:04:38;18.40;99.90
8910;DHT22;4490;49.072;8.804;2023-07-02T01:07:06;18.40;99.90
8910;DHT22;4490;49.072;8.804;2023-07-02T01:09:36;18.40;99.90
8910;DHT22;4490;49.072;8.804;2023-07-02T01:12:07;18.40;99.90
8910;DHT22;4490;49.072;8.804;2023-07-02T01:14:39;18.40;99.90
8910;DHT22;4490;49.072;8.804;2023-07-02T01:17:06;18.40;99.90
8910;DHT22;4490;49.072;8.804;2023-07-02T01:19:44;18.40;99.90
8910;DHT22;4490;49.072;8.804;2023-07-02T01:22:11;18.40;99.90
8910;DHT22;4490;49.072;8.804;2023-07-02T01:24:41;18.40;99.90
8910;DHT22;4490;49.072;8.804;2023-07-02T01:27:07;18.30;99.90
8910;DHT22;4490;49.072;8.804;2023-07-02T01:29:33;18.40;99.90
8910;DHT22;4490;49.072;8.804;2023-07-02T01:32:02;18.40;99.90
8910;DHT22;4490;49.072;8.804;2023-07-02T01:34:27;18.30;99.90
8910;DHT22;4490;49.072;8.804;2023-07-02T01:36:53;18.30;99.90
8910;DHT22;4490;49.072;8.804;2023-07-02T01:39:18;18.30;99.90
8910;DHT22;4490;49.072;8.804;2023-07-02T01:41:55;18.30;99.90
8910;DHT22;4490;49.072;8.804;2023-07-02T01:44:21;18.30;99.90
8910;DHT22;4490;49.072;8.804;2023-07-02T01:46:49;18.30;99.90
8910;DHT22;4490;49.072;8.804;2023-07-02T01:49:18;18.30;99.90
8910;DHT22;4490;49.072;8.804;2023-07-02T01:51:48;18.30;99.90
8910;DHT22;4490;49.072;8.804;2023-07-02T01:54:14;18.30;99.90
8910;DHT22;4490;49.072;8.804;2023-07-02T01:56:39;18.30;99.90
8910;DHT22;4490;49.072;8.804;2023-07-02T01:59:05;18.30;99.90
8910;DHT22;4490;49.072;8.804;2023-07-02T02:01:30;18.30;99.90
8910;DHT22;4490;49.072;8.804;2023-07-02T02:03:57;18.30;99.90
8910;DHT22;4490;49.072;8.804;2023-07-02T02:06:23;18.30;99.90
8910;DHT22;4490;49.072;8.804;2023-07-02T02:08:49;18.30;99.90
8910;DHT22;4490;49.072;8.804;2023-07-02T02:11:14;18.30;99.90
8910;DHT22;4490;49.072;8.804;2023-07-02T02:13:40;18.30;99.90
8910;DHT22;4490;49.072;8.804;2023-07-02T02:16:05;18.30;99.90
8910;DHT22;4490;49.072;8.804;2023-07-02T02:18:31;18.30;99.90
8910;DHT22;4490;49.072;8.804;2023-07-02T02:20:56;18.30;99.90
8910;DHT22;4490;49.072;8.804;2023-07-02T02:23:22;18.20;99.90
8910;DHT22;4490;49.072;8.804;2023-07-02T02:25:47;18.20;99.90
8910;DHT22;4490;49.072;8.804;2023-07-02T02:28:13;18.10;99.90
8910;DHT22;4490;49.072;8.804;2023-07-02T02:30:39;18.10;99.90
8910;DHT22;4490;49.072;8.804;2023-07-02T02:33:04;18.10;99.90
8910;DHT22;4490;49.072;8.804;2023-07-02T02:35:30;18.10;99.90
8910;DHT22;4490;49.072;8.804;2023-07-02T02:37:55;18.00;99.90
8910;DHT22;4490;49.072;8.804;2023-07-02T02:40:21;18.00;99.90
8910;DHT22;4490;49.072;8.804;2023-07-02T02:42:46;18.00;99.90
8910;DHT22;4490;49.072;8.804;2023-07-02T02:45:12;17.90;99.90
8910;DHT22;4490;49.072;8.804;2023-07-02T02:47:38;17.90;99.90
8910;DHT22;4490;49.072;8.804;2023-07-02T02:50:05;17.90;99.90
8910;DHT22;4490;49.072;8.804;2023-07-02T02:52:30;17.90;99.90
8910;DHT22;4490;49.072;8.804;2023-07-02T02:54:56;17.80;99.90
8910;DHT22;4490;49.072;8.804;2023-07-02T02:57:21;17.80;99.90
8910;DHT22;4490;49.072;8.804;2023-07-02T02:59:49;17.70;99.90
8910;DHT22;4490;49.072;8.804;2023-07-02T03:02:16;17.70;99.90
8910;DHT22;4490;49.072;8.804;2023-07-02T03:04:42;17.70;99.90
8910;DHT22;4490;49.072;8.804;2023-07-02T03:07:10;17.70;99.90
8910;DHT22;4490;49.072;8.804;2023-07-02T03:09:35;17.60;99.90
8910;DHT22;4490;49.072;8.804;2023-07-02T03:12:01;17.60;99.90
8910;DHT22;4490;49.072;8.804;2023-07-02T03:14:27;17.60;99.90
8910;DHT22;4490;49.072;8.804;2023-07-02T03:16:52;17.60;99.90
8910;DHT22;4490;49.072;8.804;2023-07-02T03:19:18;17.60;99.90
8910;DHT22;4490;49.072;8.804;2023-07-02T03:21:44;17.60;99.90
8910;DHT22;4490;49.072;8.804;2023-07-02T03:24:10;17.60;99.90
8910;DHT22;4490;49.072;8.804;2023-07-02T03:26:39;17.60;99.90
8910;DHT22;4490;49.072;8.804;2023-07-02T03:29:06;17.60;99.90
8910;DHT22;4490;49.072;8.804;2023-07-02T03:31:32;17.50;99.90
8910;DHT22;4490;49.072;8.804;2023-07-02T03:33:57;17.50;99.90
8910;DHT22;4490;49.072;8.804;2023-07-02T03:36:23;17.50;99.90
8910;DHT22;4490;49.072;8.804;2023-07-02T03:38:49;17.50;99.90
8910;DHT22;4490;49.072;8.804;2023-07-02T03:41:14;17.50;99.90
8910;DHT22;4490;49.072;8.804;2023-07-02T03:43:40;17.40;99.90
8910;DHT22;4490;49.072;8.804;2023-07-02T03:46:05;17.40;99.90
8910;DHT22;4490;49.072;8.804;2023-07-02T03:48:31;17.40;99.90
8910;DHT22;4490;49.072;8.804;2023-07-02T03:50:57;17.40;99.90
8910;DHT22;4490;49.072;8.804;2023-07-02T03:53:22;17.30;99.90
8910;DHT22;4490;49.072;8.804;2023-07-02T03:55:48;17.30;99.90
8910;DHT22;4490;49.072;8.804;2023-07-02T03:58:13;17.30;99.90
8910;DHT22;4490;49.072;8.804;2023-07-02T04:00:39;17.30;99.90
8910;DHT22;4490;49.072;8.804;2023-07-02T04:03:05;17.30;99.90
8910;DHT22;4490;49.072;8.804;2023-07-02T04:05:31;17.30;99.90
8910;DHT22;4490;49.072;8.804;2023-07-02T04:07:56;17.30;99.90
8910;DHT22;4490;49.072;8.804;2023-07-02T04:10:22;17.30;99.90
8910;DHT22;4490;49.072;8.804;2023-07-02T04:12:47;17.30;99.90
8910;DHT22;4490;49.072;8.804;2023-07-02T04:15:13;17.30;99.90
8910;DHT22;4490;49.072;8.804;2023-07-02T04:17:39;17.30;99.90
8910;DHT22;4490;49.072;8.804;2023-07-02T04:20:05;17.30;99.90
8910;DHT22;4490;49.072;8.804;2023-07-02T04:22:33;17.30;99.90
8910;DHT22;4490;49.072;8.804;2023-07-02T04:24:58;17.30;99.90
8910;DHT22;4490;49.072;8.804;2023-07-02T04:27:24;17.30;99.90
8910;DHT22;4490;49.072;8.804;2023-07-02T04:29:50;17.30;99.90
8910;DHT22;4490;49.072;8.804;2023-07-02T04:32:15;17.30;99.90
8910;DHT22;4490;49.072;8.804;2023-07-02T04:34:41;17.30;99.90
8910;DHT22;4490;49.072;8.804;2023-07-02T04:37:08;17.30;99.90
8910;DHT22;4490;49.072;8.804;2023-07-02T04:39:34;17.30;99.90
8910;DHT22;4490;49.072;8.804;2023-07-02T04:42:00;17.30;99.90
8910;DHT22;4490;49.072;8.804;2023-07-02T04:44:25;17.30;99.90
8910;DHT22;4490;49.072;8.804;2023-07-02T04:46:57;17.40;99.90
8910;DHT22;4490;49.072;8.804;2023-07-02T04:49:23;17.40;99.90
8910;DHT22;4490;49.072;8.804;2023-07-02T04:51:48;17.40;99.90
8910;DHT22;4490;49.072;8.804;2023-07-02T04:54:14;17.40;99.90
8910;DHT22;4490;49.072;8.804;2023-07-02T04:56:39;17.40;99.90
8910;DHT22;4490;49.072;8.804;2023-07-02T04:59:05;17.50;99.90
8910;DHT22;4490;49.072;8.804;2023-07-02T05:01:30;17.50;99.90
8910;DHT22;4490;49.072;8.804;2023-07-02T05:03:56;17.50;99.90
8910;DHT22;4490;49.072;8.804;2023-07-02T05:06:22;17.50;99.90
8910;DHT22;4490;49.072;8.804;2023-07-02T05:08:47;17.50;99.90
8910;DHT22;4490;49.072;8.804;2023-07-02T05:11:13;17.50;99.90
8910;DHT22;4490;49.072;8.804;2023-07-02T05:13:38;17.60;99.90
8910;DHT22;4490;49.072;8.804;2023-07-02T05:16:04;17.60;99.90
8910;DHT22;4490;49.072;8.804;2023-07-02T05:18:30;17.60;99.90
8910;DHT22;4490;49.072;8.804;2023-07-02T05:20:55;17.60;99.90
8910;DHT22;4490;49.072;8.804;2023-07-02T05:23:21;17.60;99.90
8910;DHT22;4490;49.072;8.804;2023-07-02T05:25:46;17.70;99.90
8910;DHT22;4490;49.072;8.804;2023-07-02T05:28:12;17.70;99.90
8910;DHT22;4490;49.072;8.804;2023-07-02T05:30:38;17.70;99.90
8910;DHT22;4490;49.072;8.804;2023-07-02T05:33:03;17.70;99.90
8910;DHT22;4490;49.072;8.804;2023-07-02T05:35:29;17.70;99.90
8910;DHT22;4490;49.072;8.804;2023-07-02T05:37:54;17.70;99.90
8910;DHT22;4490;49.072;8.804;2023-07-02T05:40:20;17.70;99.90
8910;DHT22;4490;49.072;8.804;2023-07-02T05:42:45;17.70;99.90
8910;DHT22;4490;49.072;8.804;2023-07-02T05:45:11;17.80;99.90
8910;DHT22;4490;49.072;8.804;2023-07-02T05:47:37;17.80;99.90
8910;DHT22;4490;49.072;8.804;2023-07-02T05:50:02;17.80;99.90
8910;DHT22;4490;49.072;8.804;2023-07-02T05:52:28;17.90;99.90
8910;DHT22;4490;49.072;8.804;2023-07-02T05:54:53;18.00;99.90
8910;DHT22;4490;49.072;8.804;2023-07-02T05:57:19;18.10;99.90
8910;DHT22;4490;49.072;8.804;2023-07-02T05:59:45;18.20;99.90
8910;DHT22;4490;49.072;8.804;2023-07-02T06:02:10;18.40;99.90
8910;DHT22;4490;49.072;8.804;2023-07-02T06:04:36;18.60;99.90
8910;DHT22;4490;49.072;8.804;2023-07-02T06:07:01;18.80;99.90
8910;DHT22;4490;49.072;8.804;2023-07-02T06:09:27;19.00;99.90
8910;DHT22;4490;49.072;8.804;2023-07-02T06:11:52;19.00;99.90
8910;DHT22;4490;49.072;8.804;2023-07-02T06:14:18;19.00;99.90
8910;DHT22;4490;49.072;8.804;2023-07-02T06:16:44;19.00;99.90
8910;DHT22;4490;49.072;8.804;2023-07-02T06:19:09;19.00;99.90
8910;DHT22;4490;49.072;8.804;2023-07-02T06:21:36;18.90;99.90
8910;DHT22;4490;49.072;8.804;2023-07-02T06:24:01;18.90;99.90
8910;DHT22;4490;49.072;8.804;2023-07-02T06:26:27;18.90;99.90
8910;DHT22;4490;49.072;8.804;2023-07-02T06:28:53;18.90;99.90
8910;DHT22;4490;49.072;8.804;2023-07-02T06:31:18;18.90;99.90
8910;DHT22;4490;49.072;8.804;2023-07-02T06:33:44;19.00;99.90
8910;DHT22;4490;49.072;8.804;2023-07-02T06:36:10;19.00;99.90
8910;DHT22;4490;49.072;8.804;2023-07-02T06:38:36;19.00;99.90
8910;DHT22;4490;49.072;8.804;2023-07-02T06:41:01;19.00;99.90
8910;DHT22;4490;49.072;8.804;2023-07-02T06:43:27;19.10;99.90
8910;DHT22;4490;49.072;8.804;2023-07-02T06:45:52;19.20;99.90
8910;DHT22;4490;49.072;8.804;2023-07-02T06:48:18;19.20;99.90
8910;DHT22;4490;49.072;8.804;2023-07-02T06:50:46;19.30;99.90
8910;DHT22;4490;49.072;8.804;2023-07-02T06:53:12;19.30;99.90
8910;DHT22;4490;49.072;8.804;2023-07-02T06:55:38;19.30;99.90
8910;DHT22;4490;49.072;8.804;2023-07-02T06:58:07;19.30;99.90
8910;DHT22;4490;49.072;8.804;2023-07-02T07:00:34;19.30;99.90
8910;DHT22;4490;49.072;8.804;2023-07-02T07:03:03;19.30;98.80
8910;DHT22;4490;49.072;8.804;2023-07-02T07:05:33;19.40;99.90
8910;DHT22;4490;49.072;8.804;2023-07-02T07:08:01;19.40;99.90
8910;DHT22;4490;49.072;8.804;2023-07-02T07:10:27;19.50;99.80
8910;DHT22;4490;49.072;8.804;2023-07-02T07:12:53;19.60;98.20
8910;DHT22;4490;49.072;8.804;2023-07-02T07:15:18;19.70;96.50
8910;DHT22;4490;49.072;8.804;2023-07-02T07:17:44;19.80;96.00
8910;DHT22;4490;49.072;8.804;2023-07-02T07:20:10;19.90;95.10
8910;DHT22;4490;49.072;8.804;2023-07-02T07:22:36;20.00;95.30
8910;DHT22;4490;49.072;8.804;2023-07-02T07:25:01;20.10;94.20
8910;DHT22;4490;49.072;8.804;2023-07-02T07:27:27;20.30;93.30
8910;DHT22;4490;49.072;8.804;2023-07-02T07:29:53;20.40;92.20
8910;DHT22;4490;49.072;8.804;2023-07-02T07:32:20;20.50;91.60
8910;DHT22;4490;49.072;8.804;2023-07-02T07:34:46;20.60;90.90
8910;DHT22;4490;49.072;8.804;2023-07-02T07:37:11;20.70;90.60
8910;DHT22;4490;49.072;8.804;2023-07-02T07:39:37;20.70;91.00
8910;DHT22;4490;49.072;8.804;2023-07-02T07:42:03;20.70;89.20
8910;DHT22;4490;49.072;8.804;2023-07-02T07:44:28;20.80;88.40
8910;DHT22;4490;49.072;8.804;2023-07-02T07:46:57;20.80;87.50
8910;DHT22;4490;49.072;8.804;2023-07-02T07:49:23;20.80;85.20
8910;DHT22;4490;49.072;8.804;2023-07-02T07:51:48;20.80;84.90
8910;DHT22;4490;49.072;8.804;2023-07-02T07:54:14;20.80;83.50
8910;DHT22;4490;49.072;8.804;2023-07-02T07:56:40;20.80;82.90
8910;DHT22;4490;49.072;8.804;2023-07-02T07:59:05;20.90;82.10
8910;DHT22;4490;49.072;8.804;2023-07-02T08:01:31;21.00;81.10
8910;DHT22;4490;49.072;8.804;2023-07-02T08:03:56;21.10;81.00
8910;DHT22;4490;49.072;8.804;2023-07-02T08:06:22;21.10;80.50
8910;DHT22;4490;49.072;8.804;2023-07-02T08:08:48;21.20;80.70
8910;DHT22;4490;49.072;8.804;2023-07-02T08:11:13;21.20;79.90
8910;DHT22;4490;49.072;8.804;2023-07-02T08:13:39;21.20;78.30
8910;DHT22;4490;49.072;8.804;2023-07-02T08:16:05;21.20;78.20
8910;DHT22;4490;49.072;8.804;2023-07-02T08:18:30;21.20;78.30
8910;DHT22;4490;49.072;8.804;2023-07-02T08:20:56;21.30;79.10
8910;DHT22;4490;49.072;8.804;2023-07-02T08:23:22;21.40;79.40
8910;DHT22;4490;49.072;8.804;2023-07-02T08:25:47;21.40;77.40
8910;DHT22;4490;49.072;8.804;2023-07-02T08:28:13;21.50;77.70
8910;DHT22;4490;49.072;8.804;2023-07-02T08:30:38;21.40;76.00
8910;DHT22;4490;49.072;8.804;2023-07-02T08:33:04;21.40;76.50
8910;DHT22;4490;49.072;8.804;2023-07-02T08:35:29;21.40;76.30
8910;DHT22;4490;49.072;8.804;2023-07-02T08:37:55;21.40;76.10
8910;DHT22;4490;49.072;8.804;2023-07-02T08:40:22;21.50;76.40
8910;DHT22;4490;49.072;8.804;2023-07-02T08:42:47;21.50;75.70
8910;DHT22;4490;49.072;8.804;2023-07-02T08:45:15;21.50;75.80
8910;DHT22;4490;49.072;8.804;2023-07-02T08:47:44;21.50;75.40
8910;DHT22;4490;49.072;8.804;2023-07-02T08:50:13;21.40;75.30
8910;DHT22;4490;49.072;8.804;2023-07-02T08:52:39;21.40;75.80
8910;DHT22;4490;49.072;8.804;2023-07-02T08:55:05;21.50;76.90
8910;DHT22;4490;49.072;8.804;2023-07-02T08:57:31;21.60;77.20
8910;DHT22;4490;49.072;8.804;2023-07-02T08:59:56;21.70;75.60
8910;DHT22;4490;49.072;8.804;2023-07-02T09:02:34;21.70;75.70
8910;DHT22;4490;49.072;8.804;2023-07-02T09:05:01;21.80;75.10
8910;DHT22;4490;49.072;8.804;2023-07-02T09:07:26;21.90;76.20
8910;DHT22;4490;49.072;8.804;2023-07-02T09:09:52;22.00;76.10
8910;DHT22;4490;49.072;8.804;2023-07-02T09:12:30;22.30;74.80
8910;DHT22;4490;49.072;8.804;2023-07-02T09:14:57;22.50;71.10
8910;DHT22;4490;49.072;8.804;2023-07-02T09:17:30;22.60;72.90
8910;DHT22;4490;49.072;8.804;2023-07-02T09:19:57;22.80;72.00
8910;DHT22;4490;49.072;8.804;2023-07-02T09:22:26;22.90;71.20
8910;DHT22;4490;49.072;8.804;2023-07-02T09:24:57;23.00;71.10
8910;DHT22;4490;49.072;8.804;2023-07-02T09:27:36;23.10;70.40
8910;DHT22;4490;49.072;8.804;2023-07-02T09:30:08;23.30;70.00
8910;DHT22;4490;49.072;8.804;2023-07-02T09:32:34;23.40;69.30
8910;DHT22;4490;49.072;8.804;2023-07-02T09:35:00;23.50;69.50
8910;DHT22;4490;49.072;8.804;2023-07-02T09:37:26;23.60;68.50
8910;DHT22;4490;49.072;8.804;2023-07-02T09:39:53;23.60;68.50
8910;DHT22;4490;49.072;8.804;2023-07-02T09:42:21;23.70;67.90
8910;DHT22;4490;49.072;8.804;2023-07-02T09:44:47;23.80;68.40
8910;DHT22;4490;49.072;8.804;2023-07-02T09:47:15;24.00;69.30
8910;DHT22;4490;49.072;8.804;2023-07-02T09:49:53;24.10;67.50
8910;DHT22;4490;49.072;8.804;2023-07-02T09:52:20;24.10;67.50
8910;DHT22;4490;49.072;8.804;2023-07-02T09:54:46;24.10;67.70
8910;DHT22;4490;49.072;8.804;2023-07-02T09:57:11;24.10;66.60
8910;DHT22;4490;49.072;8.804;2023-07-02T09:59:39;24.10;66.20
8910;DHT22;4490;49.072;8.804;2023-07-02T10:02:05;24.00;66.00
8910;DHT22;4490;49.072;8.804;2023-07-02T10:04:50;23.90;66.50
8910;DHT22;4490;49.072;8.804;2023-07-02T10:07:30;23.80;66.40
8910;DHT22;4490;49.072;8.804;2023-07-02T10:09:57;23.60;66.50
8910;DHT22;4490;49.072;8.804;2023-07-02T10:12:25;23.50;67.70
8910;DHT22;4490;49.072;8.804;2023-07-02T10:14:53;23.60;68.10
8910;DHT22;4490;49.072;8.804;2023-07-02T10:19:57;24.00;67.50
8910;DHT22;4490;49.072;8.804;2023-07-02T10:22:23;24.10;68.20
8910;DHT22;4490;49.072;8.804;2023-07-02T10:24:56;24.20;67.30
8910;DHT22;4490;49.072;8.804;2023-07-02T10:27:39;24.40;66.70
8910;DHT22;4490;49.072;8.804;2023-07-02T10:30:06;24.50;65.70
8910;DHT22;4490;49.072;8.804;2023-07-02T10:32:33;24.40;66.40
8910;DHT22;4490;49.072;8.804;2023-07-02T10:35:00;24.40;66.80
8910;DHT22;4490;49.072;8.804;2023-07-02T10:37:35;24.30;66.60
8910;DHT22;4490;49.072;8.804;2023-07-02T10:40:06;24.40;66.30
8910;DHT22;4490;49.072;8.804;2023-07-02T10:42:32;24.30;66.30
8910;DHT22;4490;49.072;8.804;2023-07-02T10:44:59;24.30;66.40
8910;DHT22;4490;49.072;8.804;2023-07-02T10:47:25;24.30;67.50
8910;DHT22;4490;49.072;8.804;2023-07-02T10:49:51;24.50;68.00
8910;DHT22;4490;49.072;8.804;2023-07-02T10:52:16;24.70;68.10
8910;DHT22;4490;49.072;8.804;2023-07-02T10:54:44;24.90;66.80
8910;DHT22;4490;49.072;8.804;2023-07-02T10:57:12;25.20;67.00
8910;DHT22;4490;49.072;8.804;2023-07-02T10:59:38;25.40;67.10
8910;DHT22;4490;49.072;8.804;2023-07-02T11:02:04;25.60;65.20
8910;DHT22;4490;49.072;8.804;2023-07-02T11:04:33;25.90;65.10
8910;DHT22;4490;49.072;8.804;2023-07-02T11:07:02;26.10;64.60
8910;DHT22;4490;49.072;8.804;2023-07-02T11:09:27;26.20;64.00
8910;DHT22;4490;49.072;8.804;2023-07-02T11:11:55;26.10;63.20
8910;DHT22;4490;49.072;8.804;2023-07-02T11:16:57;25.90;62.60
8910;DHT22;4490;49.072;8.804;2023-07-02T11:19:23;25.70;63.30
8910;DHT22;4490;49.072;8.804;2023-07-02T11:21:54;25.50;62.90
8910;DHT22;4490;49.072;8.804;2023-07-02T11:26:57;25.30;63.60
8910;DHT22;4490;49.072;8.804;2023-07-02T11:29:23;25.30;64.30
8910;DHT22;4490;49.072;8.804;2023-07-02T11:31:48;25.50;63.60
8910;DHT22;4490;49.072;8.804;2023-07-02T11:34:15;25.70;63.20
8910;DHT22;4490;49.072;8.804;2023-07-02T11:36:41;25.90;62.40
8910;DHT22;4490;49.072;8.804;2023-07-02T11:39:07;26.10;62.40
8910;DHT22;4490;49.072;8.804;2023-07-02T11:41:39;26.40;60.60
8910;DHT22;4490;49.072;8.804;2023-07-02T11:44:06;26.50;59.80
8910;DHT22;4490;49.072;8.804;2023-07-02T11:46:32;26.50;59.70
8910;DHT22;4490;49.072;8.804;2023-07-02T11:48:59;26.50;59.70
8910;DHT22;4490;49.072;8.804;2023-07-02T11:51:25;26.30;59.60
8910;DHT22;4490;49.072;8.804;2023-07-02T11:53:51;26.20;60.20
8910;DHT22;4490;49.072;8.804;2023-07-02T11:56:16;26.00;61.10
8910;DHT22;4490;49.072;8.804;2023-07-02T11:58:42;25.90;61.20
8910;DHT22;4490;49.072;8.804;2023-07-02T12:01:08;25.90;61.20
8910;DHT22;4490;49.072;8.804;2023-07-02T12:03:34;26.00;60.70
8910;DHT22;4490;49.072;8.804;2023-07-02T12:05:59;26.20;59.60
8910;DHT22;4490;49.072;8.804;2023-07-02T12:08:25;26.40;60.10
8910;DHT22;4490;49.072;8.804;2023-07-02T12:10:51;26.60;59.60
8910;DHT22;4490;49.072;8.804;2023-07-02T12:13:17;26.90;59.70
8910;DHT22;4490;49.072;8.804;2023-07-02T12:15:42;27.10;58.80
8910;DHT22;4490;49.072;8.804;2023-07-02T12:18:09;27.30;58.20
8910;DHT22;4490;49.072;8.804;2023-07-02T12:20:34;27.60;58.50
8910;DHT22;4490;49.072;8.804;2023-07-02T12:23:00;27.80;57.70
8910;DHT22;4490;49.072;8.804;2023-07-02T12:25:26;27.90;56.90
8910;DHT22;4490;49.072;8.804;2023-07-02T12:27:52;28.00;56.40
8910;DHT22;4490;49.072;8.804;2023-07-02T12:30:19;28.00;55.60
8910;DHT22;4490;49.072;8.804;2023-07-02T12:32:45;28.10;55.30
8910;DHT22;4490;49.072;8.804;2023-07-02T12:35:11;28.00;55.60
8910;DHT22;4490;49.072;8.804;2023-07-02T12:37:48;28.10;55.20
8910;DHT22;4490;49.072;8.804;2023-07-02T12:40:14;28.20;53.40
8910;DHT22;4490;49.072;8.804;2023-07-02T12:42:43;28.20;53.60
8910;DHT22;4490;49.072;8.804;2023-07-02T12:45:11;28.20;54.40
8910;DHT22;4490;49.072;8.804;2023-07-02T12:47:37;28.20;54.00
8910;DHT22;4490;49.072;8.804;2023-07-02T12:50:03;28.40;54.40
8910;DHT22;4490;49.072;8.804;2023-07-02T12:52:29;28.60;53.80
8910;DHT22;4490;49.072;8.804;2023-07-02T12:54:55;28.70;53.60
8910;DHT22;4490;49.072;8.804;2023-07-02T12:57:21;28.70;54.00
8910;DHT22;4490;49.072;8.804;2023-07-02T12:59:46;28.60;53.80
8910;DHT22;4490;49.072;8.804;2023-07-02T13:02:12;28.50;53.40
8910;DHT22;4490;49.072;8.804;2023-07-02T13:04:38;28.60;53.90
8910;DHT22;4490;49.072;8.804;2023-07-02T13:07:04;28.70;54.00
8910;DHT22;4490;49.072;8.804;2023-07-02T13:09:29;28.90;53.60
8910;DHT22;4490;49.072;8.804;2023-07-02T13:11:55;29.00;52.90
8910;DHT22;4490;49.072;8.804;2023-07-02T13:14:21;29.00;52.40
8910;DHT22;4490;49.072;8.804;2023-07-02T13:16:46;29.10;52.50
8910;DHT22;4490;49.072;8.804;2023-07-02T13:19:13;29.10;52.10
8910;DHT22;4490;49.072;8.804;2023-07-02T13:21:39;29.00;52.20
8910;DHT22;4490;49.072;8.804;2023-07-02T13:24:05;29.00;51.10
8910;DHT22;4490;49.072;8.804;2023-07-02T13:26:30;28.90;50.50
8910;DHT22;4490;49.072;8.804;2023-07-02T13:28:56;28.90;50.40
8910;DHT22;4490;49.072;8.804;2023-07-02T13:31:21;28.90;51.30
8910;DHT22;4490;49.072;8.804;2023-07-02T13:33:47;28.90;51.40
8910;DHT22;4490;49.072;8.804;2023-07-02T13:36:14;28.70;51.80
8910;DHT22;4490;49.072;8.804;2023-07-02T13:38:40;28.60;50.70
8910;DHT22;4490;49.072;8.804;2023-07-02T13:41:06;28.50;49.50
8910;DHT22;4490;49.072;8.804;2023-07-02T13:43:31;28.50;50.30
8910;DHT22;4490;49.072;8.804;2023-07-02T13:45:57;28.60;51.00
8910;DHT22;4490;49.072;8.804;2023-07-02T13:48:23;28.60;51.00
8910;DHT22;4490;49.072;8.804;2023-07-02T13:50:48;28.70;50.30
8910;DHT22;4490;49.072;8.804;2023-07-02T13:53:14;28.80;50.80
8910;DHT22;4490;49.072;8.804;2023-07-02T13:55:40;28.90;50.00
8910;DHT22;4490;49.072;8.804;2023-07-02T13:58:05;28.90;49.30
8910;DHT22;4490;49.072;8.804;2023-07-02T14:00:31;29.00;49.50
8910;DHT22;4490;49.072;8.804;2023-07-02T14:02:57;29.00;49.30
8910;DHT22;4490;49.072;8.804;2023-07-02T14:05:23;29.10;48.50
8910;DHT22;4490;49.072;8.804;2023-07-02T14:07:49;29.00;48.70
8910;DHT22;4490;49.072;8.804;2023-07-02T14:10:14;28.90;48.30
8910;DHT22;4490;49.072;8.804;2023-07-02T14:12:41;28.80;48.60
8910;DHT22;4490;49.072;8.804;2023-07-02T14:15:08;28.90;48.80
8910;DHT22;4490;49.072;8.804;2023-07-02T14:17:34;28.80;48.30
8910;DHT22;4490;49.072;8.804;2023-07-02T14:19:59;28.80;48.80
8910;DHT22;4490;49.072;8.804;2023-07-02T14:22:25;28.70;48.50
8910;DHT22;4490;49.072;8.804;2023-07-02T14:24:51;28.60;47.90
8910;DHT22;4490;49.072;8.804;2023-07-02T14:27:17;28.60;48.50
8910;DHT22;4490;49.072;8.804;2023-07-02T14:29:43;28.60;48.80
8910;DHT22;4490;49.072;8.804;2023-07-02T14:32:08;28.60;48.50
8910;DHT22;4490;49.072;8.804;2023-07-02T14:34:34;28.60;48.70
8910;DHT22;4490;49.072;8.804;2023-07-02T14:37:01;28.50;48.40
8910;DHT22;4490;49.072;8.804;2023-07-02T14:39:27;28.50;48.20
8910;DHT22;4490;49.072;8.804;2023-07-02T14:41:52;28.50;48.10
8910;DHT22;4490;49.072;8.804;2023-07-02T14:44:18;28.50;48.20
8910;DHT22;4490;49.072;8.804;2023-07-02T14:46:44;28.40;48.00
8910;DHT22;4490;49.072;8.804;2023-07-02T14:49:09;28.30;48.20
8910;DHT22;4490;49.072;8.804;2023-07-02T14:51:35;28.30;48.40
8910;DHT22;4490;49.072;8.804;2023-07-02T14:54:01;28.30;48.40
8910;DHT22;4490;49.072;8.804;2023-07-02T14:56:29;28.30;48.10
8910;DHT22;4490;49.072;8.804;2023-07-02T14:58:55;28.20;48.20
8910;DHT22;4490;49.072;8.804;2023-07-02T15:01:21;28.10;48.30
8910;DHT22;4490;49.072;8.804;2023-07-02T15:03:47;28.00;48.20
8910;DHT22;4490;49.072;8.804;2023-07-02T15:06:15;28.00;48.30
8910;DHT22;4490;49.072;8.804;2023-07-02T15:08:41;28.00;48.70
8910;DHT22;4490;49.072;8.804;2023-07-02T15:11:08;28.00;49.00
8910;DHT22;4490;49.072;8.804;2023-07-02T15:13:34;28.00;49.30
8910;DHT22;4490;49.072;8.804;2023-07-02T15:15:59;28.00;48.90
8910;DHT22;4490;49.072;8.804;2023-07-02T15:18:25;28.00;48.80
8910;DHT22;4490;49.072;8.804;2023-07-02T15:20:52;27.90;49.00
8910;DHT22;4490;49.072;8.804;2023-07-02T15:23:19;27.90;49.60
8910;DHT22;4490;49.072;8.804;2023-07-02T15:25:53;27.90;49.10
8910;DHT22;4490;49.072;8.804;2023-07-02T15:28:19;27.80;48.70
8910;DHT22;4490;49.072;8.804;2023-07-02T15:31:08;27.80;48.90
8910;DHT22;4490;49.072;8.804;2023-07-02T15:33:32;27.80;48.90
8910;DHT22;4490;49.072;8.804;2023-07-02T15:36:00;27.70;48.80
8910;DHT22;4490;49.072;8.804;2023-07-02T15:38:26;27.70;49.00
8910;DHT22;4490;49.072;8.804;2023-07-02T15:41:06;27.60;48.70
8910;DHT22;4490;49.072;8.804;2023-07-02T15:43:32;27.60;48.70
8910;DHT22;4490;49.072;8.804;2023-07-02T15:45:58;27.50;49.40
8910;DHT22;4490;49.072;8.804;2023-07-02T15:48:24;27.50;49.20
8910;DHT22;4490;49.072;8.804;2023-07-02T15:50:49;27.30;49.10
8910;DHT22;4490;49.072;8.804;2023-07-02T15:53:15;27.30;49.30
8910;DHT22;4490;49.072;8.804;2023-07-02T15:55:41;27.30;49.80
8910;DHT22;4490;49.072;8.804;2023-07-02T15:58:07;27.20;49.60
8910;DHT22;4490;49.072;8.804;2023-07-02T16:00:32;27.20;49.90
8910;DHT22;4490;49.072;8.804;2023-07-02T16:02:58;27.20;49.70
8910;DHT22;4490;49.072;8.804;2023-07-02T16:05:25;27.20;49.60